Scammon Bay Airport
PACM : now visible

Aeroporto :











RITROVATECI SU...

 
LOGIN :

Iscrizione | Disclaimer

   EN    FR    IT 

 









Sommario :    VFR   VFR Marginale   IFR   IFR Intensivo   IFR Molto Intensivo
Visibilità : 
Base nubi : 
>= 8 km
>= 3000ft
5 / 8 km
1000 / 3000 ft
1500m / 5 km
500 / 1000 ft
800 / 1500m
200 / 500 ft
< 800m
< 200 ft
Simboli :   Temporali  Nebbia  Neve Forte  Precipitazioni Forti  Vento > 20 kt






- Altitudine del aeroporto : 14 ft


PACM - Scammon Bay

ULTIMO METAR :
  • 011756Z AUTO 05004KT 10SM CLR 12/09 A2955 RMK AO2 SLP004 T01170094 10117 20094 51012

METARs OBSOLETI :
  • 011712Z AUTO 29004KT 10SM SCT011 11/08 A2955 RMK AO2
  • 011656Z AUTO 28008KT 10SM BKN011 11/08 A2955 RMK AO2 SLP001 T01110078
  • 011638Z AUTO 27005KT 10SM BKN011 11/07 A2954 RMK AO2
  • 011628Z AUTO 29005KT 10SM SCT009 11/10 A2954 RMK AO2
  • 011556Z AUTO 00000KT 10SM CLR 11/09 A2953 RMK AO2 SLP996 T01060094

TAF N/A
FIR PAZA / America del Nord



MetMap, La meteo Aeronautica in un colpo d'occhio ! - Copyright ORBIFLY Dicembre 2007 - Disclaimer

ORBIFLY MET'MAP TEAM :

Programmazione e sviluppo : Alexandra Zaïnal
Concezione : Baudouin d'Aumeries
Aiuto per la programmazione : Marc-Olivier Méhu
Supporto tecnico e logistico : Manuel Goepfert
Aiuto per la traduzione : Arnaldo La Scala

Contatto : metmap@orbifly.com




FONTI E CREDITI :

   NOAA       Earth
Advisory